createdAt,value
2018-11-12T00:00:34.558Z,99.90
2018-11-12T00:03:03.547Z,99.90
2018-11-12T00:05:32.501Z,99.90
2018-11-12T00:08:01.476Z,99.90
2018-11-12T00:10:30.431Z,99.90
2018-11-12T00:12:59.395Z,99.90
2018-11-12T00:15:28.328Z,99.90
2018-11-12T00:17:57.280Z,99.90
2018-11-12T00:20:26.263Z,99.90
2018-11-12T00:22:55.206Z,99.90
2018-11-12T00:25:24.197Z,99.90
2018-11-12T00:27:53.125Z,99.90
2018-11-12T00:30:22.069Z,99.90
2018-11-12T00:32:50.999Z,99.90
2018-11-12T00:35:20.594Z,99.90
2018-11-12T00:37:49.524Z,99.90
2018-11-12T00:40:18.746Z,99.90
2018-11-12T00:42:47.941Z,99.90
2018-11-12T00:45:16.927Z,99.90
2018-11-12T00:47:45.845Z,99.90
2018-11-12T00:50:16.897Z,99.90
2018-11-12T00:52:46.061Z,99.90
2018-11-12T00:55:15.907Z,99.90
2018-11-12T00:57:45.396Z,99.90
2018-11-12T01:00:16.368Z,99.90
2018-11-12T01:02:46.521Z,99.90
2018-11-12T01:05:16.115Z,99.90
2018-11-12T01:07:45.347Z,99.90
2018-11-12T01:10:15.390Z,99.90
2018-11-12T01:12:44.807Z,99.90
2018-11-12T01:15:17.078Z,99.90
2018-11-12T01:17:46.228Z,99.90
2018-11-12T01:20:16.166Z,99.90
2018-11-12T01:22:45.100Z,99.90
2018-11-12T01:25:14.555Z,99.90
2018-11-12T01:27:44.143Z,99.90
2018-11-12T01:30:19.547Z,99.90
2018-11-12T01:32:48.549Z,99.90
2018-11-12T01:35:18.313Z,99.90
2018-11-12T01:37:47.249Z,99.90
2018-11-12T01:40:16.818Z,99.90
2018-11-12T01:42:45.995Z,99.90
2018-11-12T01:45:16.761Z,99.90
2018-11-12T01:47:46.875Z,99.90
2018-11-12T01:50:16.397Z,99.90
2018-11-12T01:52:45.960Z,99.90
2018-11-12T01:55:16.099Z,99.90
2018-11-12T01:57:45.384Z,99.90
2018-11-12T02:00:18.410Z,99.90
2018-11-12T02:02:48.698Z,99.90
2018-11-12T02:05:18.112Z,99.90
2018-11-12T02:07:47.084Z,99.90
2018-11-12T02:10:17.249Z,99.90
2018-11-12T02:12:46.193Z,99.90
2018-11-12T02:15:17.314Z,99.90
2018-11-12T02:17:46.955Z,99.90
2018-11-12T02:20:17.098Z,99.90
2018-11-12T02:22:47.116Z,99.90
2018-11-12T02:25:16.517Z,99.90
2018-11-12T02:27:45.475Z,99.90
2018-11-12T02:30:17.470Z,99.90
2018-11-12T02:32:46.454Z,99.90
2018-11-12T02:35:15.411Z,99.90
2018-11-12T02:37:44.401Z,99.90
2018-11-12T02:40:13.740Z,99.90
2018-11-12T02:42:43.681Z,99.90
2018-11-12T02:45:13.672Z,99.90
2018-11-12T02:47:43.509Z,99.90
2018-11-12T02:50:14.018Z,99.90
2018-11-12T02:52:43.228Z,99.90
2018-11-12T02:55:14.352Z,99.90
2018-11-12T02:57:44.184Z,99.90
2018-11-12T03:00:15.416Z,99.90
2018-11-12T03:02:44.835Z,99.90
2018-11-12T03:05:13.939Z,99.90
2018-11-12T03:07:43.151Z,99.90
2018-11-12T03:10:16.043Z,99.90
2018-11-12T03:12:45.021Z,99.90
2018-11-12T03:15:14.810Z,99.90
2018-11-12T03:17:44.423Z,99.90
2018-11-12T03:20:17.615Z,99.90
2018-11-12T03:22:46.581Z,99.90
2018-11-12T03:25:16.871Z,99.90
2018-11-12T03:27:46.443Z,99.90
2018-11-12T03:30:16.680Z,99.90
2018-11-12T03:32:46.495Z,99.90
2018-11-12T03:35:15.764Z,99.90
2018-11-12T03:37:46.284Z,99.90
2018-11-12T03:40:17.410Z,99.90
2018-11-12T03:42:46.849Z,99.90
2018-11-12T03:45:17.078Z,99.90
2018-11-12T03:47:46.020Z,99.90
2018-11-12T03:50:18.283Z,99.90
2018-11-12T03:52:47.243Z,99.90
2018-11-12T03:55:17.456Z,99.90
2018-11-12T03:57:46.433Z,99.90
2018-11-12T04:00:17.669Z,99.90
2018-11-12T04:02:46.586Z,99.90
2018-11-12T04:05:15.541Z,99.90
2018-11-12T04:07:44.510Z,99.90
2018-11-12T04:10:16.950Z,99.90
2018-11-12T04:12:45.904Z,99.90
2018-11-12T04:15:17.057Z,99.90
2018-11-12T04:17:46.032Z,99.90
2018-11-12T04:20:17.188Z,99.90
2018-11-12T04:22:51.747Z,99.90
2018-11-12T04:25:20.681Z,99.90
2018-11-12T04:27:49.720Z,99.90
2018-11-12T04:30:18.649Z,99.90
2018-11-12T04:32:47.656Z,99.90
2018-11-12T04:35:17.519Z,99.90
2018-11-12T04:37:48.014Z,99.90
2018-11-12T04:40:18.188Z,99.90
2018-11-12T04:42:47.659Z,99.90
2018-11-12T04:45:17.801Z,99.90
2018-11-12T04:47:47.634Z,99.90
2018-11-12T04:50:18.453Z,99.90
2018-11-12T04:52:47.515Z,99.90
2018-11-12T04:55:18.359Z,99.90
2018-11-12T04:57:47.564Z,99.90
2018-11-12T05:00:19.698Z,99.90
2018-11-12T05:02:48.706Z,99.90
2018-11-12T05:05:18.968Z,99.90
2018-11-12T05:07:47.907Z,99.90
2018-11-12T05:10:18.293Z,99.90
2018-11-12T05:12:47.987Z,99.90
2018-11-12T05:15:19.160Z,99.90
2018-11-12T05:17:48.156Z,99.90
2018-11-12T05:20:18.690Z,99.90
2018-11-12T05:22:48.241Z,99.90
2018-11-12T05:25:17.245Z,99.90
2018-11-12T05:27:46.181Z,99.90
2018-11-12T05:30:19.458Z,99.90
2018-11-12T05:32:48.412Z,99.90
2018-11-12T05:35:18.686Z,99.90
2018-11-12T05:37:47.747Z,99.90
2018-11-12T05:40:18.125Z,99.90
2018-11-12T05:42:47.096Z,99.90
2018-11-12T05:45:17.217Z,99.90
2018-11-12T05:47:46.166Z,99.90
2018-11-12T05:50:16.938Z,99.90
2018-11-12T05:52:47.040Z,99.90
2018-11-12T05:55:17.217Z,99.90
2018-11-12T05:57:46.570Z,99.90
2018-11-12T06:00:20.020Z,99.90
2018-11-12T06:02:49.017Z,99.90
2018-11-12T06:05:17.966Z,99.90
2018-11-12T06:07:46.912Z,99.90
2018-11-12T06:10:18.387Z,99.90
2018-11-12T06:12:47.594Z,99.90
2018-11-12T06:15:16.977Z,99.90
2018-11-12T06:17:46.803Z,99.90
2018-11-12T06:20:19.935Z,99.90
2018-11-12T06:22:48.963Z,99.90
2018-11-12T06:25:20.259Z,99.90
2018-11-12T06:27:49.555Z,99.90
2018-11-12T06:30:19.905Z,99.90
2018-11-12T06:32:48.922Z,99.90
2018-11-12T06:35:18.373Z,99.90
2018-11-12T06:37:48.097Z,99.90
2018-11-12T06:40:19.243Z,99.90
2018-11-12T06:42:48.284Z,99.90
2018-11-12T06:45:19.130Z,99.90
2018-11-12T06:47:48.987Z,99.90
2018-11-12T06:50:19.270Z,99.90
2018-11-12T06:52:48.276Z,99.90
2018-11-12T06:55:17.780Z,99.90
2018-11-12T06:57:47.209Z,99.90
2018-11-12T07:00:18.476Z,99.90
2018-11-12T07:02:47.472Z,99.90
2018-11-12T07:05:18.361Z,99.90
2018-11-12T07:07:48.437Z,99.90
2018-11-12T07:10:18.829Z,99.90
2018-11-12T07:12:48.551Z,99.90
2018-11-12T07:15:18.758Z,99.90
2018-11-12T07:17:48.171Z,99.90
2018-11-12T07:20:18.788Z,99.90
2018-11-12T07:22:48.012Z,99.90
2018-11-12T07:25:18.257Z,99.90
2018-11-12T07:27:47.185Z,99.90
2018-11-12T07:30:18.490Z,99.90
2018-11-12T07:32:48.183Z,99.90
2018-11-12T07:35:17.759Z,99.90
2018-11-12T07:37:48.007Z,99.90
2018-11-12T07:40:17.598Z,99.90
2018-11-12T07:42:46.655Z,99.90
2018-11-12T07:45:18.666Z,99.90
2018-11-12T07:47:48.581Z,99.90
2018-11-12T07:50:19.633Z,99.90
2018-11-12T07:52:48.612Z,99.90
2018-11-12T07:55:20.076Z,99.90
2018-11-12T07:57:50.405Z,99.90
2018-11-12T08:00:21.251Z,99.90
2018-11-12T08:02:51.229Z,99.90
2018-11-12T08:05:20.469Z,99.90
2018-11-12T08:07:49.452Z,99.90
2018-11-12T08:10:19.388Z,99.90
2018-11-12T08:12:48.657Z,99.90
2018-11-12T08:15:18.996Z,99.90
2018-11-12T08:17:48.373Z,99.90
2018-11-12T08:20:21.563Z,99.90
2018-11-12T08:22:52.653Z,99.90
2018-11-12T08:25:22.556Z,99.90
2018-11-12T08:27:51.596Z,99.90
2018-11-12T08:30:24.716Z,99.90
2018-11-12T08:32:55.677Z,99.90
2018-11-12T08:35:24.749Z,99.90
2018-11-12T08:37:59.478Z,99.90
2018-11-12T08:40:29.551Z,99.90
2018-11-12T08:42:58.574Z,99.90
2018-11-12T08:45:27.653Z,99.90
2018-11-12T08:47:57.251Z,99.90
2018-11-12T08:50:26.990Z,99.90
2018-11-12T08:52:56.735Z,99.90
2018-11-12T08:55:30.191Z,99.90
2018-11-12T08:58:01.485Z,99.90
2018-11-12T09:00:30.546Z,99.90
2018-11-12T09:02:59.520Z,99.90
2018-11-12T09:05:29.992Z,99.90
2018-11-12T09:08:00.232Z,99.90
2018-11-12T09:10:31.455Z,99.90
2018-11-12T09:13:00.444Z,99.90
2018-11-12T09:15:29.438Z,99.90
2018-11-12T09:17:58.569Z,99.90
2018-11-12T09:20:28.569Z,99.90
2018-11-12T09:22:57.548Z,99.90
2018-11-12T09:25:28.905Z,99.90
2018-11-12T09:28:00.444Z,99.90
2018-11-12T09:30:31.716Z,99.90
2018-11-12T09:33:18.616Z,99.90
2018-11-12T09:35:56.716Z,99.90
2018-11-12T09:38:47.449Z,99.90
2018-11-12T09:41:17.567Z,99.90
2018-11-12T09:47:07.129Z,99.90
2018-11-12T09:49:36.320Z,99.90
2018-11-12T09:52:05.944Z,99.90
2018-11-12T09:54:35.062Z,99.90
2018-11-12T09:57:11.410Z,99.90
2018-11-12T10:02:26.304Z,99.90
2018-11-12T10:04:55.808Z,99.90
2018-11-12T10:07:30.037Z,99.90
2018-11-12T10:09:59.684Z,99.90
2018-11-12T10:12:29.187Z,99.90
2018-11-12T10:14:57.698Z,99.90
2018-11-12T10:17:27.191Z,99.90
2018-11-12T10:19:53.219Z,99.90
2018-11-12T10:22:22.168Z,99.90
2018-11-12T10:24:51.165Z,99.90
2018-11-12T10:27:20.125Z,99.90
2018-11-12T10:29:49.771Z,99.90
2018-11-12T10:32:19.063Z,99.90
2018-11-12T10:34:48.060Z,99.90
2018-11-12T10:37:17.041Z,99.90
2018-11-12T10:39:46.056Z,99.90
2018-11-12T10:42:14.975Z,99.90
2018-11-12T10:44:43.928Z,99.90
2018-11-12T10:47:12.888Z,99.90
2018-11-12T10:49:41.837Z,99.90
2018-11-12T10:52:13.814Z,99.90
2018-11-12T10:54:44.704Z,99.90
2018-11-12T10:57:13.665Z,99.90
2018-11-12T10:59:42.667Z,99.90
2018-11-12T11:02:17.026Z,99.90
2018-11-12T11:04:45.962Z,99.90
2018-11-12T11:07:14.931Z,99.90
2018-11-12T11:09:43.864Z,99.90
2018-11-12T11:12:12.831Z,99.90
2018-11-12T11:14:41.892Z,99.90
2018-11-12T11:17:10.877Z,99.90
2018-11-12T11:19:39.843Z,99.90
2018-11-12T11:22:08.767Z,99.90
2018-11-12T11:24:37.687Z,99.90
2018-11-12T11:27:06.677Z,99.90
2018-11-12T11:29:35.632Z,99.70
2018-11-12T11:32:04.664Z,99.90
2018-11-12T11:34:33.685Z,99.90
2018-11-12T11:37:02.672Z,99.50
2018-11-12T11:39:32.180Z,98.80
2018-11-12T11:42:01.152Z,99.30
2018-11-12T11:44:30.105Z,98.80
2018-11-12T11:46:59.062Z,99.60
2018-11-12T11:49:27.998Z,99.70
2018-11-12T11:51:56.952Z,99.00
2018-11-12T11:54:25.893Z,98.80
2018-11-12T11:56:54.977Z,98.20
2018-11-12T11:59:23.869Z,99.20
2018-11-12T12:01:52.825Z,99.00
2018-11-12T12:04:21.772Z,98.30
2018-11-12T12:06:50.721Z,99.10
2018-11-12T12:09:19.711Z,97.80
2018-11-12T12:11:48.666Z,98.50
2018-11-12T12:14:17.701Z,98.70
2018-11-12T12:16:46.682Z,98.30
2018-11-12T12:19:15.651Z,97.70
2018-11-12T12:21:45.287Z,97.70
2018-11-12T12:24:14.318Z,98.10
2018-11-12T12:26:43.450Z,97.60
2018-11-12T12:29:12.528Z,97.40
2018-11-12T12:31:41.540Z,97.60
2018-11-12T12:34:10.498Z,97.10
2018-11-12T12:36:39.461Z,97.70
2018-11-12T12:39:09.916Z,96.80
2018-11-12T12:41:38.853Z,97.30
2018-11-12T12:44:07.872Z,96.50
2018-11-12T12:46:36.770Z,96.70
2018-11-12T12:49:05.885Z,97.30
2018-11-12T12:51:34.935Z,96.80
2018-11-12T12:54:03.894Z,96.80
2018-11-12T12:56:32.881Z,96.80
2018-11-12T12:59:02.624Z,96.60
2018-11-12T13:01:31.648Z,96.50
2018-11-12T13:04:00.523Z,96.60
2018-11-12T13:06:29.513Z,96.50
2018-11-12T13:08:58.415Z,96.90
2018-11-12T13:11:27.360Z,96.90
2018-11-12T13:13:56.405Z,96.50
2018-11-12T13:16:25.290Z,96.00
2018-11-12T13:18:54.238Z,96.60
2018-11-12T13:21:23.293Z,96.10
2018-11-12T13:23:52.211Z,96.30
2018-11-12T13:26:21.219Z,96.40
2018-11-12T13:28:50.109Z,96.20
2018-11-12T13:31:19.069Z,95.90
2018-11-12T13:33:50.665Z,96.10
2018-11-12T13:36:19.623Z,96.50
2018-11-12T13:38:48.602Z,95.90
2018-11-12T13:41:17.549Z,96.70
2018-11-12T13:43:46.493Z,96.20
2018-11-12T13:46:15.509Z,96.10
2018-11-12T13:48:44.804Z,96.30
2018-11-12T13:51:13.742Z,97.00
2018-11-12T13:53:42.678Z,96.50
2018-11-12T13:56:11.630Z,96.20
2018-11-12T13:58:40.590Z,96.60
2018-11-12T14:01:09.553Z,97.30
2018-11-12T14:03:38.491Z,97.60
2018-11-12T14:06:07.465Z,96.70
2018-11-12T14:08:36.427Z,96.20
2018-11-12T14:11:05.771Z,96.10
2018-11-12T14:13:34.696Z,96.60
2018-11-12T14:16:03.664Z,96.10
2018-11-12T14:18:32.770Z,96.70
2018-11-12T14:21:01.830Z,96.30
2018-11-12T14:23:30.709Z,96.40
2018-11-12T14:25:59.704Z,96.40
2018-11-12T14:28:28.768Z,96.30
2018-11-12T14:30:57.610Z,95.70
2018-11-12T14:33:26.587Z,95.70
2018-11-12T14:35:55.618Z,95.90
2018-11-12T14:38:24.531Z,96.20
2018-11-12T14:40:53.507Z,97.00
2018-11-12T14:43:22.457Z,96.50
2018-11-12T14:45:51.494Z,96.20
2018-11-12T14:48:20.471Z,96.00
2018-11-12T14:50:49.470Z,97.00
2018-11-12T14:53:18.392Z,96.90
2018-11-12T14:55:47.393Z,96.80
2018-11-12T14:58:16.436Z,96.00
2018-11-12T15:00:45.345Z,95.60
2018-11-12T15:03:14.311Z,95.40
2018-11-12T15:05:43.308Z,96.10
2018-11-12T15:08:12.257Z,96.40
2018-11-12T15:10:41.195Z,95.50
2018-11-12T15:13:10.689Z,95.30
2018-11-12T15:15:39.611Z,95.80
2018-11-12T15:18:08.582Z,96.20
2018-11-12T15:20:37.514Z,96.30
2018-11-12T15:23:06.478Z,95.80
2018-11-12T15:25:35.412Z,96.00
2018-11-12T15:28:04.652Z,96.30
2018-11-12T15:30:33.577Z,95.60
2018-11-12T15:33:02.536Z,95.50
2018-11-12T15:35:31.469Z,95.20
2018-11-12T15:38:00.886Z,95.60
2018-11-12T15:40:29.851Z,95.50
2018-11-12T15:42:58.841Z,96.30
2018-11-12T15:45:27.773Z,96.00
2018-11-12T15:47:56.733Z,95.40
2018-11-12T15:50:34.265Z,96.40
2018-11-12T15:53:03.221Z,97.10
2018-11-12T15:55:32.171Z,97.10
2018-11-12T15:58:01.199Z,97.50
2018-11-12T16:00:30.137Z,97.40
2018-11-12T16:02:59.105Z,96.70
2018-11-12T16:05:28.055Z,97.60
2018-11-12T16:07:57.022Z,98.00
2018-11-12T16:10:25.957Z,97.90
2018-11-12T16:12:54.925Z,97.90
2018-11-12T16:15:23.856Z,97.80
2018-11-12T16:17:52.824Z,97.90
2018-11-12T16:20:25.270Z,97.90
2018-11-12T16:22:54.732Z,97.80
2018-11-12T16:25:24.181Z,98.00
2018-11-12T16:27:53.943Z,96.90
2018-11-12T16:30:22.904Z,97.00
2018-11-12T16:32:51.924Z,98.00
2018-11-12T16:35:22.398Z,98.70
2018-11-12T16:37:52.330Z,99.00
2018-11-12T16:40:21.366Z,99.10
2018-11-12T16:42:50.754Z,98.00
2018-11-12T16:45:19.716Z,98.40
2018-11-12T16:47:48.796Z,98.30
2018-11-12T16:50:18.325Z,98.50
2018-11-12T16:52:47.393Z,98.00
2018-11-12T16:55:17.928Z,98.50
2018-11-12T16:57:47.173Z,98.50
2018-11-12T17:00:17.769Z,98.70
2018-11-12T17:02:47.434Z,98.90
2018-11-12T17:05:18.825Z,99.00
2018-11-12T17:07:47.782Z,99.10
2018-11-12T17:10:18.065Z,98.90
2018-11-12T17:12:47.951Z,98.70
2018-11-12T17:15:17.179Z,98.40
2018-11-12T17:17:46.562Z,98.10
2018-11-12T17:20:17.982Z,97.40
2018-11-12T17:22:46.922Z,97.50
2018-11-12T17:25:16.544Z,97.90
2018-11-12T17:27:45.807Z,98.20
2018-11-12T17:30:16.974Z,98.40
2018-11-12T17:32:46.473Z,98.60
2018-11-12T17:35:16.704Z,98.40
2018-11-12T17:37:45.701Z,98.40
2018-11-12T17:40:17.839Z,98.10
2018-11-12T17:42:47.764Z,97.90
2018-11-12T17:45:18.944Z,97.90
2018-11-12T17:47:48.978Z,97.00
2018-11-12T17:50:18.713Z,97.50
2018-11-12T17:52:47.680Z,97.90
2018-11-12T17:55:16.640Z,98.10
2018-11-12T17:57:45.610Z,97.20
2018-11-12T18:00:32.614Z,97.20
2018-11-12T18:03:01.570Z,98.00
2018-11-12T18:05:30.549Z,97.70
2018-11-12T18:07:59.534Z,98.10
2018-11-12T18:10:28.492Z,97.70
2018-11-12T18:12:57.458Z,97.80
2018-11-12T18:15:26.435Z,97.60
2018-11-12T18:17:56.164Z,97.30
2018-11-12T18:20:26.564Z,97.60
2018-11-12T18:22:56.074Z,97.70
2018-11-12T18:25:25.018Z,98.10
2018-11-12T18:27:54.633Z,98.30
2018-11-12T18:30:25.351Z,98.60
2018-11-12T18:32:55.096Z,98.80
2018-11-12T18:35:24.089Z,98.90
2018-11-12T18:37:53.110Z,98.50
2018-11-12T18:40:23.619Z,98.10
2018-11-12T18:42:52.556Z,98.20
2018-11-12T18:45:22.856Z,98.00
2018-11-12T18:47:51.810Z,97.90
2018-11-12T18:50:23.185Z,98.00
2018-11-12T18:52:52.132Z,97.90
2018-11-12T18:55:21.105Z,97.00
2018-11-12T18:57:50.446Z,97.00
2018-11-12T19:00:23.354Z,97.50
2018-11-12T19:02:52.619Z,98.10
2018-11-12T19:05:24.166Z,98.20
2018-11-12T19:07:54.209Z,98.60
2018-11-12T19:10:32.886Z,98.70
2018-11-12T19:13:02.582Z,98.20
2018-11-12T19:15:34.419Z,98.70
2018-11-12T19:18:07.356Z,98.60
2018-11-12T19:20:36.325Z,98.40
2018-11-12T19:23:05.740Z,98.60
2018-11-12T19:25:34.678Z,98.60
2018-11-12T19:28:03.670Z,99.00
2018-11-12T19:30:32.752Z,99.60
2018-11-12T19:33:01.733Z,99.80
2018-11-12T19:35:31.885Z,99.90
2018-11-12T19:38:00.830Z,99.80
2018-11-12T19:40:30.996Z,99.90
2018-11-12T19:42:59.833Z,99.50
2018-11-12T19:45:28.826Z,99.30
2018-11-12T19:47:57.900Z,99.90
2018-11-12T19:50:28.088Z,99.90
2018-11-12T19:52:57.995Z,99.90
2018-11-12T19:55:26.938Z,99.90
2018-11-12T19:57:55.960Z,99.90
2018-11-12T20:00:26.190Z,99.90
2018-11-12T20:02:56.324Z,99.90
2018-11-12T20:05:25.286Z,99.90
2018-11-12T20:07:54.262Z,99.90
2018-11-12T20:10:23.705Z,99.90
2018-11-12T20:12:52.788Z,99.90
2018-11-12T20:15:22.875Z,99.90
2018-11-12T20:17:52.640Z,99.90
2018-11-12T20:20:24.055Z,99.90
2018-11-12T20:22:53.397Z,99.90
2018-11-12T20:25:22.488Z,99.90
2018-11-12T20:27:54.012Z,99.90
2018-11-12T20:30:26.441Z,99.90
2018-11-12T20:32:55.470Z,99.90
2018-11-12T20:35:24.692Z,99.90
2018-11-12T20:37:53.689Z,99.90
2018-11-12T20:40:22.672Z,99.90
2018-11-12T20:42:51.708Z,99.90
2018-11-12T20:45:21.493Z,99.90
2018-11-12T20:47:52.591Z,99.90
2018-11-12T20:50:22.244Z,99.90
2018-11-12T20:52:51.845Z,99.90
2018-11-12T20:55:20.988Z,99.90
2018-11-12T20:57:49.946Z,99.90
2018-11-12T21:00:20.344Z,99.90
2018-11-12T21:02:50.415Z,99.90
2018-11-12T21:05:21.037Z,99.90
2018-11-12T21:07:50.070Z,99.90
2018-11-12T21:10:19.532Z,99.90
2018-11-12T21:12:49.048Z,99.90
2018-11-12T21:15:18.881Z,99.90
2018-11-12T21:17:47.824Z,99.90
2018-11-12T21:20:18.276Z,99.90
2018-11-12T21:22:47.231Z,99.90
2018-11-12T21:25:17.490Z,99.90
2018-11-12T21:27:46.416Z,99.90
2018-11-12T21:30:18.355Z,99.90
2018-11-12T21:32:47.492Z,99.90
2018-11-12T21:35:16.473Z,99.90
2018-11-12T21:37:45.737Z,99.90
2018-11-12T21:40:16.483Z,99.90
2018-11-12T21:42:45.439Z,99.90
2018-11-12T21:45:18.651Z,99.90
2018-11-12T21:47:47.646Z,99.90
2018-11-12T21:50:17.885Z,99.90
2018-11-12T21:52:46.838Z,99.90
2018-11-12T21:55:15.808Z,99.90
2018-11-12T21:57:45.142Z,99.90
2018-11-12T22:00:22.160Z,99.90
2018-11-12T22:02:52.561Z,99.90
2018-11-12T22:05:21.774Z,99.90
2018-11-12T22:07:50.735Z,99.90
2018-11-12T22:10:19.997Z,99.90
2018-11-12T22:12:50.623Z,99.90
2018-11-12T22:15:20.469Z,99.90
2018-11-12T22:17:49.832Z,99.90
2018-11-12T22:20:20.027Z,99.90
2018-11-12T22:22:48.961Z,99.90
2018-11-12T22:25:19.161Z,99.90
2018-11-12T22:27:48.946Z,99.90
2018-11-12T22:30:20.445Z,99.90
2018-11-12T22:32:50.612Z,99.90
2018-11-12T22:35:19.619Z,99.90
2018-11-12T22:37:48.935Z,99.90
2018-11-12T22:40:18.557Z,99.90
2018-11-12T22:42:48.979Z,99.90
2018-11-12T22:45:20.028Z,99.90
2018-11-12T22:47:49.388Z,99.90
2018-11-12T22:50:18.384Z,99.90
2018-11-12T22:52:47.410Z,99.90
2018-11-12T22:55:17.424Z,99.90
2018-11-12T22:57:46.481Z,99.90
2018-11-12T23:00:22.815Z,99.90
2018-11-12T23:02:51.968Z,99.90
2018-11-12T23:05:21.297Z,99.90
2018-11-12T23:07:50.653Z,99.90
2018-11-12T23:10:19.972Z,99.90
2018-11-12T23:12:48.940Z,99.90
2018-11-12T23:15:18.524Z,99.90
2018-11-12T23:17:47.503Z,99.90
2018-11-12T23:20:19.114Z,99.90
2018-11-12T23:22:48.659Z,99.90
2018-11-12T23:25:17.899Z,99.90
2018-11-12T23:27:47.547Z,99.90
2018-11-12T23:30:17.640Z,99.90
2018-11-12T23:32:46.628Z,99.90
2018-11-12T23:35:18.690Z,99.90
2018-11-12T23:37:48.255Z,99.90
2018-11-12T23:40:17.277Z,99.90
2018-11-12T23:42:46.833Z,99.90
2018-11-12T23:45:15.819Z,99.90
2018-11-12T23:47:44.793Z,99.90
2018-11-12T23:50:17.240Z,99.90
2018-11-12T23:52:47.102Z,99.90
2018-11-12T23:55:16.280Z,99.90
2018-11-12T23:57:46.120Z,99.90
